Time;durP1;ratioP1;P1;durP2;ratioP2;P2;SDS_P1;SDS_P2;PMS_P1;PMS_P2;Temp;Humidity;BMP_temperature;BMP_pressure;BME280_temperature;BME280_humidity;BME280_pressure;Samples;Min_cycle;Max_cycle;Signal;HPM_P1;HPM_P2
2021/03/09 00:00:45;;;;;;;23.03;13.20;;;10.90;36.20;;;;;;5040978;28;20442;-85
2021/03/09 00:03:13;;;;;;;25.87;12.87;;;11.00;35.60;;;;;;5040868;28;20437;-85
2021/03/09 00:05:39;;;;;;;20.90;12.90;;;11.10;35.60;;;;;;5039811;28;20460;-85
2021/03/09 00:08:06;;;;;;;17.10;11.10;;;10.90;35.10;;;;;;5038306;28;20954;-86
2021/03/09 00:10:32;;;;;;;19.10;10.93;;;10.90;36.20;;;;;;5036744;28;20425;-85
2021/03/09 00:13:01;;;;;;;22.23;12.47;;;11.10;35.60;;;;;;5037314;28;20453;-85
2021/03/09 00:15:28;;;;;;;18.67;12.60;;;9.80;33.30;;;;;;5036817;28;20548;-86
2021/03/09 00:17:54;;;;;;;16.80;10.83;;;9.40;35.60;;;;;;5037414;28;20504;-86
2021/03/09 00:20:21;;;;;;;17.57;10.97;;;9.80;36.30;;;;;;5037494;28;20429;-85
2021/03/09 00:22:48;;;;;;;19.57;10.03;;;10.00;36.90;;;;;;5038532;28;20445;-85
2021/03/09 00:25:18;;;;;;;19.33;11.90;;;10.40;36.90;;;;;;5047856;28;20523;-85
2021/03/09 00:27:44;;;;;;;28.63;14.73;;;10.40;31.60;;;;;;5045082;28;20456;-85
2021/03/09 00:30:11;;;;;;;19.30;11.10;;;9.70;33.80;;;;;;5039378;28;20499;-86
2021/03/09 00:32:38;;;;;;;27.50;14.53;;;9.60;37.10;;;;;;5038016;28;20457;-85
2021/03/09 00:35:05;;;;;;;20.30;11.27;;;9.80;37.60;;;;;;5038492;28;20452;-86
2021/03/09 00:37:41;;;;;;;19.80;10.90;;;10.10;36.60;;;;;;5038414;28;20473;-86
2021/03/09 00:40:09;;;;;;;17.60;10.73;;;10.30;36.80;;;;;;5038205;28;20491;-86
2021/03/09 00:42:36;;;;;;;22.93;12.80;;;10.30;35.70;;;;;;5037150;28;20440;-86
2021/03/09 00:45:03;;;;;;;16.40;10.50;;;10.40;35.80;;;;;;5037766;28;20471;-86
2021/03/09 00:47:30;;;;;;;19.90;11.53;;;10.40;35.80;;;;;;5037619;28;20453;-86
2021/03/09 00:49:56;;;;;;;20.00;11.40;;;10.50;35.90;;;;;;5037281;28;20453;-86
2021/03/09 00:52:26;;;;;;;20.53;11.30;;;10.40;35.90;;;;;;5037231;28;20498;-85
2021/03/09 00:54:53;;;;;;;19.20;12.27;;;10.20;35.80;;;;;;5036790;28;20471;-86
2021/03/09 00:57:20;;;;;;;20.93;11.97;;;10.60;36.30;;;;;;5037388;28;20507;-86
2021/03/09 00:59:46;;;;;;;19.23;11.40;;;10.90;36.00;;;;;;5036552;28;20943;-86
2021/03/09 01:02:17;;;;;;;18.10;10.77;;;10.40;35.90;;;;;;5036430;28;20510;-86
2021/03/09 01:04:44;;;;;;;23.47;13.30;;;10.60;36.00;;;;;;5036956;28;20465;-86
2021/03/09 01:07:10;;;;;;;18.80;11.13;;;10.60;35.10;;;;;;5045985;28;20426;-86
2021/03/09 01:09:37;;;;;;;19.03;11.10;;;10.20;35.60;;;;;;5055116;28;20434;-86
2021/03/09 01:12:05;;;;;;;22.00;12.27;;;10.50;36.40;;;;;;5041727;28;20465;-86
2021/03/09 01:14:32;;;;;;;18.43;11.60;;;10.60;36.10;;;;;;5039812;28;20472;-86
2021/03/09 01:16:58;;;;;;;18.03;10.23;;;10.50;35.90;;;;;;5039630;28;20473;-86
2021/03/09 01:19:25;;;;;;;16.30;9.90;;;10.40;35.90;;;;;;5040184;28;20460;-86
2021/03/09 01:21:51;;;;;;;17.17;10.47;;;10.70;36.10;;;;;;5039802;28;20871;-85
2021/03/09 01:24:18;;;;;;;15.13;10.03;;;10.80;36.10;;;;;;5039901;28;20488;-86
2021/03/09 01:26:45;;;;;;;24.70;11.40;;;10.90;36.20;;;;;;5039702;28;20456;-85
2021/03/09 01:29:12;;;;;;;21.30;10.10;;;10.60;33.50;;;;;;5039221;28;20946;-86
2021/03/09 01:31:39;;;;;;;17.33;11.00;;;10.50;36.00;;;;;;5040562;28;20440;-86
2021/03/09 01:34:05;;;;;;;20.63;11.70;;;10.60;36.00;;;;;;5040040;28;20465;-86
2021/03/09 01:36:32;;;;;;;23.87;11.50;;;10.50;32.90;;;;;;5040294;28;20452;-86
2021/03/09 01:38:58;;;;;;;21.03;12.20;;;10.30;35.20;;;;;;5040008;28;20803;-86
2021/03/09 01:41:25;;;;;;;16.20;10.50;;;9.70;37.00;;;;;;5040155;28;20790;-86
2021/03/09 01:43:51;;;;;;;23.70;11.60;;;10.00;36.90;;;;;;5039710;28;20782;-86
2021/03/09 01:46:19;;;;;;;16.27;10.30;;;9.40;36.80;;;;;;5043338;28;20460;-86
2021/03/09 01:48:48;;;;;;;17.93;9.47;;;9.30;37.00;;;;;;5051163;28;20448;-86
2021/03/09 01:51:19;;;;;;;18.27;10.80;;;9.40;39.00;;;;;;5051576;28;20452;-85
2021/03/09 01:53:46;;;;;;;15.20;9.50;;;10.00;37.70;;;;;;5040780;28;20488;-86
2021/03/09 01:56:14;;;;;;;20.17;10.37;;;10.00;37.60;;;;;;5039939;28;20454;-86
2021/03/09 01:58:45;;;;;;;20.37;11.90;;;10.20;37.50;;;;;;5039814;28;20473;-85
2021/03/09 02:01:12;;;;;;;18.33;10.67;;;10.50;36.00;;;;;;5039658;28;20449;-86
2021/03/09 02:03:39;;;;;;;17.30;10.27;;;10.40;35.80;;;;;;5039367;28;20801;-86
2021/03/09 02:06:06;;;;;;;17.10;10.17;;;10.50;36.10;;;;;;5039870;28;20499;-86
2021/03/09 02:08:33;;;;;;;26.00;10.60;;;10.30;35.70;;;;;;5039917;28;20532;-86
2021/03/09 02:11:00;;;;;;;17.10;11.23;;;10.20;35.60;;;;;;5037170;28;20460;-86
2021/03/09 02:13:39;;;;;;;18.57;11.70;;;10.30;35.70;;;;;;5036420;28;20448;-86
2021/03/09 02:16:14;;;;;;;16.40;9.97;;;10.40;35.80;;;;;;5036734;28;20414;-86
2021/03/09 02:18:47;;;;;;;17.30;10.60;;;10.20;35.60;;;;;;5036114;28;20487;-86
2021/03/09 02:21:46;;;;;;;16.73;10.40;;;10.10;33.20;;;;;;5036569;28;20437;-85
2021/03/09 02:24:52;;;;;;;16.37;10.50;;;10.00;34.90;;;;;;5034116;28;21056;-86
2021/03/09 02:27:50;;;;;;;19.50;10.60;;;8.60;32.70;;;;;;5019319;28;20441;-86
2021/03/09 02:30:23;;;;;;;21.40;11.20;;;7.50;37.80;;;;;;5036508;28;20471;-86
2021/03/09 02:32:56;;;;;;;18.90;10.33;;;7.00;37.40;;;;;;5048934;28;20790;-85
2021/03/09 02:35:25;;;;;;;20.30;11.37;;;7.80;41.40;;;;;;5043751;28;20461;-86
2021/03/09 02:37:54;;;;;;;18.67;10.77;;;8.50;38.20;;;;;;5041595;28;20495;-86
2021/03/09 02:40:21;;;;;;;15.70;10.47;;;8.50;35.10;;;;;;5037105;28;20480;-86
2021/03/09 02:42:52;;;;;;;16.17;10.40;;;8.20;35.50;;;;;;5038534;28;20456;-86
2021/03/09 02:45:21;;;;;;;18.47;10.73;;;7.60;38.80;;;;;;5038673;28;20496;-85
2021/03/09 02:47:50;;;;;;;19.27;11.57;;;7.30;37.70;;;;;;5035896;28;20510;-86
2021/03/09 02:50:20;;;;;;;23.37;12.20;;;6.80;36.10;;;;;;5035800;28;20455;-85
2021/03/09 02:52:51;;;;;;;19.50;12.63;;;5.70;38.60;;;;;;5035637;28;20894;-85
2021/03/09 02:55:19;;;;;;;18.67;10.70;;;5.80;38.40;;;;;;5035679;28;20468;-86
2021/03/09 02:57:48;;;;;;;19.67;10.40;;;6.30;42.80;;;;;;5035758;28;20484;-86
2021/03/09 03:00:15;;;;;;;23.00;11.60;;;6.90;42.60;;;;;;5036407;28;20452;-85
2021/03/09 03:02:43;;;;;;;19.63;10.73;;;6.80;41.00;;;;;;5035911;28;20890;-85
2021/03/09 03:05:12;;;;;;;23.40;13.50;;;6.70;38.10;;;;;;5035296;28;20820;-86
2021/03/09 03:07:39;;;;;;;21.27;11.80;;;6.20;36.20;;;;;;5035548;28;20957;-85
2021/03/09 03:10:11;;;;;;;18.80;11.67;;;5.40;41.30;;;;;;5035395;28;20463;-85
2021/03/09 03:12:39;;;;;;;18.67;11.27;;;5.70;41.50;;;;;;5035335;28;20481;-85
2021/03/09 03:15:07;;;;;;;23.40;11.03;;;6.20;41.00;;;;;;5035312;28;20480;-85
2021/03/09 03:17:35;;;;;;;18.40;10.83;;;6.50;42.20;;;;;;5039968;28;20472;-85
2021/03/09 03:20:08;;;;;;;19.10;11.20;;;6.90;41.20;;;;;;5034792;28;20662;-85
2021/03/09 03:22:36;;;;;;;15.60;10.00;;;7.10;39.80;;;;;;5034936;28;20449;-86
2021/03/09 03:25:05;;;;;;;24.30;11.10;;;7.60;39.70;;;;;;5034830;28;20840;-86
2021/03/09 03:27:33;;;;;;;23.87;13.17;;;7.80;39.10;;;;;;5034702;28;20503;-85
2021/03/09 03:29:59;;;;;;;27.80;10.93;;;7.70;37.30;;;;;;5035121;28;20464;-86
2021/03/09 03:32:26;;;;;;;22.13;12.43;;;7.80;38.90;;;;;;5034878;28;20436;-86
2021/03/09 03:34:52;;;;;;;22.70;13.37;;;7.30;36.20;;;;;;5034351;28;20473;-86
2021/03/09 03:37:21;;;;;;;24.60;11.23;;;6.50;36.60;;;;;;5034677;28;20493;-85
2021/03/09 03:39:48;;;;;;;22.20;10.30;;;6.40;41.40;;;;;;5034456;28;20444;-85
2021/03/09 03:42:16;;;;;;;27.23;13.03;;;6.60;41.70;;;;;;5034212;28;20440;-85
2021/03/09 03:44:43;;;;;;;20.03;11.23;;;6.60;37.90;;;;;;5034515;28;20488;-86
2021/03/09 03:47:09;;;;;;;19.77;12.20;;;7.30;42.50;;;;;;5034086;28;20437;-86
2021/03/09 03:49:36;;;;;;;21.07;10.63;;;7.40;37.70;;;;;;5034589;28;20520;-85
2021/03/09 03:52:10;;;;;;;23.10;13.23;;;7.30;39.40;;;;;;5037017;28;20480;-85
2021/03/09 03:54:48;;;;;;;21.03;11.97;;;7.50;39.50;;;;;;5041322;28;20902;-85
2021/03/09 03:57:21;;;;;;;22.17;11.13;;;7.80;38.40;;;;;;5035570;28;20446;-85
2021/03/09 03:59:52;;;;;;;21.13;11.37;;;8.50;40.90;;;;;;5036688;28;20911;-85
2021/03/09 04:02:20;;;;;;;19.97;10.33;;;8.90;40.10;;;;;;5034265;28;20453;-86
2021/03/09 04:04:49;;;;;;;22.17;11.10;;;9.00;38.90;;;;;;5034058;28;20511;-86
2021/03/09 04:07:20;;;;;;;17.53;10.53;;;8.80;38.70;;;;;;5033829;28;20441;-86
2021/03/09 04:09:50;;;;;;;22.60;11.90;;;8.40;38.60;;;;;;5034639;28;20892;-85
2021/03/09 04:12:19;;;;;;;19.20;10.50;;;8.60;38.10;;;;;;5033790;28;20962;-85
2021/03/09 04:14:46;;;;;;;23.37;13.20;;;8.60;37.30;;;;;;5034436;28;20500;-85
2021/03/09 04:17:13;;;;;;;21.53;12.20;;;8.50;35.10;;;;;;5033990;28;20539;-85
2021/03/09 04:19:41;;;;;;;19.40;11.17;;;8.00;38.00;;;;;;5034113;28;20437;-86
2021/03/09 04:22:08;;;;;;;20.63;11.70;;;7.90;38.30;;;;;;5033970;28;20984;-86
2021/03/09 04:24:36;;;;;;;27.70;13.20;;;8.10;40.80;;;;;;5033898;28;20990;-86
2021/03/09 04:27:03;;;;;;;15.67;10.90;;;8.50;38.70;;;;;;5034084;28;20444;-85
2021/03/09 04:29:30;;;;;;;18.50;10.17;;;8.90;39.60;;;;;;5034025;28;20449;-87
2021/03/09 04:31:57;;;;;;;19.17;10.40;;;9.20;39.80;;;;;;5033835;28;20444;-86
2021/03/09 04:34:23;;;;;;;13.87;9.50;;;9.60;40.00;;;;;;5034047;28;20476;-86
2021/03/09 04:36:51;;;;;;;15.33;9.90;;;9.80;39.30;;;;;;5034261;28;20483;-86
2021/03/09 04:39:18;;;;;;;15.53;10.13;;;10.00;37.00;;;;;;5033425;28;20477;-86
2021/03/09 04:41:44;;;;;;;16.90;9.97;;;9.90;38.70;;;;;;5037587;28;20444;-86
2021/03/09 04:44:12;;;;;;;18.73;11.93;;;10.10;37.00;;;;;;5038504;28;20473;-86
2021/03/09 04:46:39;;;;;;;18.00;10.60;;;10.00;34.90;;;;;;5037911;28;20433;-86
2021/03/09 04:49:06;;;;;;;20.13;11.23;;;9.80;37.40;;;;;;5037633;28;20926;-86
2021/03/09 04:51:36;;;;;;;22.93;12.87;;;9.90;38.10;;;;;;5038363;28;20457;-86
2021/03/09 04:54:03;;;;;;;16.50;11.20;;;10.00;36.50;;;;;;5042818;28;20503;-86
2021/03/09 04:56:32;;;;;;;22.20;12.63;;;9.50;33.60;;;;;;5042100;28;20468;-86
2021/03/09 04:58:58;;;;;;;16.90;11.27;;;9.10;37.20;;;;;;5041305;28;20473;-86
2021/03/09 05:01:26;;;;;;;20.60;12.77;;;8.60;35.70;;;;;;5039189;28;20445;-86
2021/03/09 05:03:52;;;;;;;22.40;13.07;;;8.50;36.90;;;;;;5038635;28;20551;-87
2021/03/09 05:06:19;;;;;;;25.70;13.13;;;8.00;36.50;;;;;;5037856;28;20463;-86
2021/03/09 05:08:45;;;;;;;28.53;12.87;;;7.50;36.10;;;;;;5037178;28;20449;-86
2021/03/09 05:11:12;;;;;;;22.90;12.47;;;6.60;35.80;;;;;;5037414;28;20440;-86
2021/03/09 05:13:38;;;;;;;21.00;11.47;;;6.60;39.60;;;;;;5036909;28;20440;-87
2021/03/09 05:16:06;;;;;;;22.03;14.00;;;6.60;39.20;;;;;;5037188;28;20475;-86
2021/03/09 05:18:33;;;;;;;27.37;13.00;;;6.70;39.80;;;;;;5037326;28;20473;-86
2021/03/09 05:20:59;;;;;;;18.83;11.60;;;7.10;38.10;;;;;;5038195;28;20445;-86
2021/03/09 05:23:26;;;;;;;22.53;12.27;;;7.10;39.60;;;;;;5037483;28;20450;-87
2021/03/09 05:25:52;;;;;;;20.40;12.80;;;7.10;39.60;;;;;;5037045;28;20881;-86
2021/03/09 05:28:19;;;;;;;22.80;13.73;;;7.00;39.40;;;;;;5038289;28;20490;-86
2021/03/09 05:30:45;;;;;;;19.70;11.90;;;6.90;38.00;;;;;;5038558;28;20501;-86
2021/03/09 05:33:12;;;;;;;23.30;13.33;;;6.70;39.10;;;;;;5038013;28;20447;-86
2021/03/09 05:35:39;;;;;;;24.17;12.87;;;6.40;38.20;;;;;;5038497;28;20456;-87
2021/03/09 05:38:06;;;;;;;24.30;15.23;;;6.50;40.40;;;;;;5037878;28;20546;-86
2021/03/09 05:40:32;;;;;;;20.43;12.80;;;6.20;37.30;;;;;;5037974;28;20453;-85
2021/03/09 05:42:59;;;;;;;31.97;13.17;;;6.20;39.60;;;;;;5037478;28;20450;-86
2021/03/09 05:45:25;;;;;;;24.87;14.23;;;6.20;40.40;;;;;;5037998;28;20881;-86
2021/03/09 05:47:52;;;;;;;34.60;15.37;;;6.50;38.90;;;;;;5038314;28;20447;-86
2021/03/09 05:50:19;;;;;;;25.30;14.80;;;6.10;37.40;;;;;;5038844;28;20540;-86
2021/03/09 05:52:46;;;;;;;26.90;15.30;;;5.10;37.50;;;;;;5036267;28;20865;-86
2021/03/09 05:55:14;;;;;;;25.87;13.20;;;4.70;41.80;;;;;;5036509;28;20932;-86
2021/03/09 05:57:40;;;;;;;28.23;14.90;;;5.00;41.90;;;;;;5036271;28;20579;-86
2021/03/09 06:00:09;;;;;;;25.60;15.27;;;5.20;42.20;;;;;;5036836;28;20502;-86
2021/03/09 06:02:36;;;;;;;29.37;14.77;;;5.10;41.40;;;;;;5036158;28;20980;-86
2021/03/09 06:05:03;;;;;;;28.33;16.80;;;5.40;42.00;;;;;;5036231;28;20462;-86
2021/03/09 06:07:30;;;;;;;34.30;17.00;;;5.30;39.10;;;;;;5036764;28;20454;-86
2021/03/09 06:09:57;;;;;;;25.60;13.87;;;5.10;37.20;;;;;;5036888;28;20975;-86
2021/03/09 06:12:25;;;;;;;25.73;14.03;;;5.30;42.60;;;;;;5036836;28;20463;-86
2021/03/09 06:15:04;;;;;;;29.27;15.63;;;5.90;42.40;;;;;;5055302;28;20466;-86
2021/03/09 06:17:35;;;;;;;26.57;15.00;;;6.40;38.40;;;;;;5056462;28;20499;-86
2021/03/09 06:20:02;;;;;;;26.53;15.73;;;6.50;36.30;;;;;;5053623;28;20429;-86
2021/03/09 06:22:40;;;;;;;25.77;15.27;;;5.70;35.00;;;;;;5036850;28;20469;-86
2021/03/09 06:25:10;;;;;;;25.90;15.80;;;5.00;38.20;;;;;;5036249;28;20469;-85
2021/03/09 06:27:37;;;;;;;25.93;15.30;;;4.60;38.90;;;;;;5035685;28;20446;-86
2021/03/09 06:30:07;;;;;;;26.73;15.00;;;4.60;41.10;;;;;;5036025;28;20946;-84
2021/03/09 06:32:45;;;;;;;32.33;16.77;;;4.70;39.80;;;;;;5036095;28;20441;-85
2021/03/09 06:35:33;;;;;;;33.27;17.97;;;4.40;41.40;;;;;;5036873;28;21002;-84
2021/03/09 06:38:15;;;;;;;23.07;14.00;;;4.70;40.20;;;;;;5035159;28;20519;-84
2021/03/09 06:40:43;;;;;;;27.77;14.70;;;5.10;41.10;;;;;;5033791;28;20478;-85
2021/03/09 06:43:18;;;;;;;21.83;12.07;;;5.40;41.00;;;;;;5036826;28;20967;-85
2021/03/09 06:45:45;;;;;;;28.73;16.90;;;5.80;40.80;;;;;;5035254;28;20459;-86
2021/03/09 06:48:22;;;;;;;20.97;11.90;;;5.60;35.80;;;;;;5035234;28;20433;-85
2021/03/09 06:50:49;;;;;;;30.23;13.97;;;5.60;42.50;;;;;;5035037;28;20435;-85
2021/03/09 06:53:26;;;;;;;21.57;11.43;;;7.00;42.90;;;;;;5035266;28;20429;-85
2021/03/09 06:55:54;;;;;;;21.17;12.80;;;7.80;41.10;;;;;;5035220;28;20456;-85
2021/03/09 06:58:28;;;;;;;24.30;14.70;;;8.00;38.80;;;;;;5035611;28;20468;-85
2021/03/09 07:00:54;;;;;;;21.47;13.60;;;7.90;34.80;;;;;;5036292;28;20900;-88
2021/03/09 07:03:33;;;;;;;20.30;12.70;;;7.80;37.30;;;;;;5035025;28;20459;-87
2021/03/09 07:06:00;;;;;;;26.13;15.80;;;7.10;34.20;;;;;;5036000;28;20452;-86
2021/03/09 07:08:27;;;;;;;23.80;14.03;;;6.50;35.30;;;;;;5053869;28;20444;-84
2021/03/09 07:10:55;;;;;;;23.53;13.60;;;7.00;38.20;;;;;;5045432;28;20448;-85
2021/03/09 07:13:25;;;;;;;29.93;14.53;;;6.70;37.00;;;;;;5039084;28;20437;-85
2021/03/09 07:15:52;;;;;;;31.37;17.13;;;6.80;37.60;;;;;;5040771;28;20942;-86
2021/03/09 07:18:21;;;;;;;27.53;15.70;;;6.80;35.30;;;;;;5052363;28;20480;-86
2021/03/09 07:20:48;;;;;;;32.77;15.80;;;6.90;35.70;;;;;;5046168;28;20450;-85
2021/03/09 07:23:18;;;;;;;20.60;12.60;;;7.40;37.20;;;;;;5035592;28;20500;-85
2021/03/09 07:25:46;;;;;;;27.63;16.53;;;7.50;36.10;;;;;;5034327;28;20567;-86
2021/03/09 07:28:15;;;;;;;29.43;16.23;;;7.70;34.50;;;;;;5037983;28;20503;-86
2021/03/09 07:30:44;;;;;;;29.30;17.57;;;7.40;35.70;;;;;;5035495;28;20994;-85
2021/03/09 07:33:12;;;;;;;28.90;17.13;;;6.80;34.80;;;;;;5035201;28;20451;-86
2021/03/09 07:35:40;;;;;;;30.63;17.37;;;6.50;36.40;;;;;;5034962;28;20453;-86
2021/03/09 07:38:08;;;;;;;39.67;17.03;;;6.70;36.10;;;;;;5034467;28;20477;-85
2021/03/09 07:40:36;;;;;;;28.50;15.13;;;6.50;36.40;;;;;;5034276;28;20495;-86
2021/03/09 07:43:04;;;;;;;35.77;17.87;;;7.00;36.50;;;;;;5034802;28;20523;-85
2021/03/09 07:45:33;;;;;;;31.23;17.00;;;7.60;35.10;;;;;;5034239;28;20503;-85
2021/03/09 07:48:10;;;;;;;30.07;15.10;;;7.40;34.30;;;;;;5034352;28;20491;-85
2021/03/09 07:50:39;;;;;;;25.03;14.03;;;7.40;36.10;;;;;;5034065;28;20434;-86
2021/03/09 07:53:07;;;;;;;30.43;17.20;;;7.80;35.80;;;;;;5034359;28;20454;-85
2021/03/09 07:55:35;;;;;;;39.17;17.90;;;7.50;34.40;;;;;;5034414;28;20507;-85
2021/03/09 07:58:16;;;;;;;29.53;16.50;;;7.40;35.10;;;;;;5034695;28;20531;-85
2021/03/09 08:00:57;;;;;;;31.83;17.93;;;8.00;35.60;;;;;;5035754;28;20443;-85
2021/03/09 08:03:26;;;;;;;28.70;16.50;;;8.40;33.80;;;;;;5035012;28;20487;-85
2021/03/09 08:05:54;;;;;;;29.60;16.90;;;8.30;35.00;;;;;;5034408;28;20547;-85
2021/03/09 08:08:44;;;;;;;20.33;11.57;;;7.90;34.30;;;;;;5034401;28;20800;-86
2021/03/09 08:11:35;;;;;;;30.97;14.70;;;9.00;36.50;;;;;;5035623;28;20405;-86
2021/03/09 08:14:22;;;;;;;23.20;14.57;;;9.30;34.50;;;;;;5019751;28;20468;-86
2021/03/09 08:16:50;;;;;;;24.23;14.93;;;9.70;33.90;;;;;;5034398;28;20433;-86
2021/03/09 08:19:42;;;;;;;22.50;13.50;;;10.10;31.30;;;;;;5034273;28;20532;-85
2021/03/09 08:22:10;;;;;;;28.80;14.70;;;10.20;31.00;;;;;;5036588;28;20875;-85
2021/03/09 08:24:56;;;;;;;25.70;15.03;;;9.50;32.50;;;;;;5054352;28;20510;-85
2021/03/09 08:27:35;;;;;;;23.40;12.23;;;9.50;34.50;;;;;;5055425;28;20445;-85
2021/03/09 08:30:36;;;;;;;23.50;12.20;;;10.30;34.60;;;;;;5055682;28;20457;-85
2021/03/09 08:33:36;;;;;;;32.57;14.40;;;10.80;33.20;;;;;;5055345;28;20433;-85
2021/03/09 08:36:32;;;;;;;23.33;11.90;;;10.30;32.00;;;;;;5055744;28;20418;-85
2021/03/09 08:39:16;;;;;;;21.80;12.93;;;10.20;31.90;;;;;;5055599;28;20485;-85
2021/03/09 08:42:02;;;;;;;17.40;12.20;;;10.00;30.30;;;;;;5056162;28;20429;-85
2021/03/09 08:44:29;;;;;;;25.23;15.27;;;9.90;34.10;;;;;;5055407;28;20457;-85
2021/03/09 08:46:57;;;;;;;19.33;11.93;;;9.70;32.60;;;;;;5055151;28;20451;-84
2021/03/09 08:49:54;;;;;;;21.70;12.30;;;10.10;33.70;;;;;;5055521;28;20457;-85
2021/03/09 08:52:39;;;;;;;31.57;13.03;;;10.30;34.80;;;;;;5053415;28;20446;-85
2021/03/09 08:55:07;;;;;;;24.43;13.97;;;10.70;32.70;;;;;;5048041;28;20552;-86
2021/03/09 08:57:34;;;;;;;19.27;10.83;;;10.80;32.30;;;;;;5044397;28;20445;-86
2021/03/09 09:00:04;;;;;;;21.77;13.23;;;10.90;33.30;;;;;;5046856;28;20470;-86
2021/03/09 09:02:31;;;;;;;22.77;15.77;;;11.00;31.30;;;;;;5053247;28;20429;-86
2021/03/09 09:05:01;;;;;;;32.33;16.50;;;10.00;30.40;;;;;;5053806;28;20465;-85
2021/03/09 09:07:29;;;;;;;22.43;13.73;;;9.60;32.60;;;;;;5055062;28;20461;-85
2021/03/09 09:09:59;;;;;;;29.97;14.73;;;10.00;32.70;;;;;;5053889;28;20433;-85
2021/03/09 09:12:31;;;;;;;18.93;11.70;;;10.90;30.40;;;;;;5053252;28;20445;-85
2021/03/09 09:15:11;;;;;;;20.13;12.33;;;11.10;32.70;;;;;;5053406;28;20450;-85
2021/03/09 09:17:40;;;;;;;28.80;15.80;;;10.80;30.60;;;;;;5053287;28;20418;-85
2021/03/09 09:20:10;;;;;;;23.00;14.70;;;9.70;32.00;;;;;;5054135;28;20434;-85
2021/03/09 09:22:36;;;;;;;25.07;14.10;;;9.70;33.90;;;;;;5052810;28;20422;-84
2021/03/09 09:25:07;;;;;;;17.40;11.77;;;9.60;33.00;;;;;;5052608;28;20484;-85
2021/03/09 09:27:42;;;;;;;21.53;14.20;;;9.40;37.00;;;;;;5054446;28;20473;-85
2021/03/09 09:30:12;;;;;;;22.40;14.43;;;9.40;34.00;;;;;;5045228;28;20438;-85
2021/03/09 09:33:00;;;;;;;24.50;13.80;;;9.70;34.40;;;;;;5043081;28;20444;-84
2021/03/09 09:35:29;;;;;;;27.73;14.87;;;9.70;36.10;;;;;;5034880;28;20473;-85
2021/03/09 09:37:58;;;;;;;20.37;12.83;;;9.80;32.70;;;;;;5037402;28;20595;-85
2021/03/09 09:40:28;;;;;;;16.27;11.53;;;9.50;34.10;;;;;;5038807;28;20438;-85
2021/03/09 09:42:57;;;;;;;23.30;12.97;;;9.50;36.00;;;;;;5037477;28;20469;-85
2021/03/09 09:45:25;;;;;;;17.07;10.20;;;10.10;32.60;;;;;;5040757;28;20470;-85
2021/03/09 09:47:53;;;;;;;21.77;13.20;;;10.90;34.20;;;;;;5046238;28;20442;-85
2021/03/09 09:50:21;;;;;;;20.97;13.27;;;11.50;31.30;;;;;;5048616;28;20928;-85
2021/03/09 09:53:03;;;;;;;21.40;13.30;;;11.00;29.70;;;;;;5052830;28;20483;-85
2021/03/09 09:55:31;;;;;;;24.00;12.70;;;11.10;30.40;;;;;;5051341;28;20463;-85
2021/03/09 09:58:03;;;;;;;20.40;12.90;;;11.10;31.90;;;;;;5054034;28;20469;-84
2021/03/09 10:00:34;;;;;;;21.30;13.33;;;11.60;31.60;;;;;;5055759;28;20450;-85
2021/03/09 10:03:12;;;;;;;27.60;15.13;;;10.90;30.20;;;;;;5055284;28;20435;-85
2021/03/09 10:05:41;;;;;;;25.67;14.60;;;10.90;30.30;;;;;;5055283;28;20464;-85
2021/03/09 10:08:10;;;;;;;24.50;14.43;;;11.20;31.00;;;;;;5055627;28;20551;-85
2021/03/09 10:10:37;;;;;;;23.00;14.10;;;11.70;30.70;;;;;;5054954;28;20440;-85
2021/03/09 10:13:22;;;;;;;21.83;13.97;;;11.60;29.60;;;;;;5054107;28;20447;-85
2021/03/09 10:15:52;;;;;;;21.27;12.50;;;11.20;30.80;;;;;;5056402;28;20453;-85
2021/03/09 10:18:29;;;;;;;17.17;11.03;;;11.00;31.30;;;;;;5052169;28;20468;-85
2021/03/09 10:21:05;;;;;;;20.10;12.57;;;12.10;32.70;;;;;;5054978;28;20428;-85
2021/03/09 10:23:34;;;;;;;25.53;14.43;;;12.50;30.10;;;;;;5054440;28;20448;-85
2021/03/09 10:26:02;;;;;;;20.97;12.37;;;12.30;28.60;;;;;;5054390;28;20498;-84
2021/03/09 10:28:31;;;;;;;23.20;13.80;;;12.20;29.50;;;;;;5055446;28;20486;-84
2021/03/09 10:30:58;;;;;;;18.33;12.63;;;12.30;28.60;;;;;;5055851;28;20469;-86
2021/03/09 10:33:25;;;;;;;29.73;16.70;;;12.40;30.00;;;;;;5054396;28;20450;-85
2021/03/09 10:36:10;;;;;;;21.10;12.30;;;12.40;29.20;;;;;;5052426;28;20588;-85
2021/03/09 10:38:38;;;;;;;19.33;12.23;;;12.60;28.80;;;;;;5043964;28;20580;-85
2021/03/09 10:41:25;;;;;;;20.20;12.10;;;12.80;29.50;;;;;;5046489;28;20511;-85
2021/03/09 10:43:53;;;;;;;20.10;12.30;;;13.60;29.90;;;;;;5042264;28;20966;-85
2021/03/09 10:46:20;;;;;;;17.17;11.20;;;13.40;27.40;;;;;;5043397;28;20503;-85
2021/03/09 10:48:49;;;;;;;15.03;11.20;;;13.20;28.90;;;;;;5043003;28;20449;-85
2021/03/09 10:51:18;;;;;;;15.43;10.47;;;12.90;27.40;;;;;;5044317;28;20459;-85
2021/03/09 10:53:46;;;;;;;15.37;10.50;;;12.80;27.50;;;;;;5042717;28;20437;-86
2021/03/09 10:56:13;;;;;;;15.00;10.27;;;12.50;28.00;;;;;;5037155;28;20441;-86
2021/03/09 10:58:42;;;;;;;12.53;9.17;;;12.70;29.90;;;;;;5036129;28;20481;-86
2021/03/09 11:01:09;;;;;;;11.37;7.67;;;13.10;29.30;;;;;;5044296;28;20829;-85
2021/03/09 11:03:39;;;;;;;13.67;8.77;;;13.90;29.70;;;;;;5045020;28;20437;-87
2021/03/09 11:06:06;;;;;;;15.40;10.10;;;14.00;28.30;;;;;;5040597;28;20452;-86
2021/03/09 11:08:32;;;;;;;15.10;8.90;;;13.50;26.70;;;;;;5039986;28;20445;-85
2021/03/09 11:11:00;;;;;;;14.33;8.70;;;13.40;26.90;;;;;;5038262;28;20821;-85
2021/03/09 11:13:28;;;;;;;16.83;9.80;;;13.70;27.60;;;;;;5037490;28;20453;-85
2021/03/09 11:15:55;;;;;;;17.83;11.00;;;14.00;25.80;;;;;;5037702;28;20469;-85
2021/03/09 11:18:23;;;;;;;13.53;8.40;;;13.50;26.70;;;;;;5036985;28;20841;-86
2021/03/09 11:20:50;;;;;;;14.33;7.80;;;13.50;27.00;;;;;;5038935;28;20472;-85
2021/03/09 11:23:16;;;;;;;15.10;8.63;;;13.80;26.60;;;;;;5037372;28;20448;-85
2021/03/09 11:25:43;;;;;;;19.83;9.57;;;13.80;26.40;;;;;;5038058;28;20508;-85
2021/03/09 11:28:10;;;;;;;13.77;9.40;;;13.80;26.20;;;;;;5039261;28;20441;-86
2021/03/09 11:30:37;;;;;;;15.73;9.10;;;13.40;25.90;;;;;;5037176;28;20431;-85
2021/03/09 11:33:03;;;;;;;12.70;9.00;;;13.50;27.90;;;;;;5037718;28;20449;-86
2021/03/09 11:35:30;;;;;;;11.43;7.90;;;14.10;26.20;;;;;;5036732;28;20458;-86
2021/03/09 11:37:56;;;;;;;15.27;9.53;;;14.00;25.90;;;;;;5039818;28;20865;-85
2021/03/09 11:40:26;;;;;;;15.50;9.80;;;13.80;26.10;;;;;;5036301;28;20460;-86
2021/03/09 11:42:53;;;;;;;14.47;10.10;;;13.30;26.60;;;;;;5037013;28;20448;-86
2021/03/09 11:45:21;;;;;;;14.00;9.13;;;13.30;26.40;;;;;;5036582;28;20470;-86
2021/03/09 11:47:47;;;;;;;13.20;9.70;;;13.10;27.10;;;;;;5036942;28;20433;-86
2021/03/09 11:50:15;;;;;;;13.67;9.67;;;13.50;26.70;;;;;;5037365;28;20438;-86
2021/03/09 11:52:44;;;;;;;10.50;7.03;;;13.50;25.70;;;;;;5036529;28;20444;-86
2021/03/09 11:55:13;;;;;;;15.03;9.77;;;13.70;27.60;;;;;;5036997;28;20978;-85
2021/03/09 11:57:39;;;;;;;13.47;9.53;;;13.50;24.80;;;;;;5037209;28;20449;-85
2021/03/09 12:00:07;;;;;;;10.40;6.90;;;12.70;24.80;;;;;;5036726;28;20558;-85
2021/03/09 12:02:35;;;;;;;17.30;11.70;;;12.70;27.90;;;;;;5038136;28;20458;-85
2021/03/09 12:05:01;;;;;;;13.23;9.40;;;13.00;25.30;;;;;;5037754;28;20457;-86
2021/03/09 12:07:28;;;;;;;13.80;9.60;;;13.20;25.40;;;;;;5036557;28;20445;-86
2021/03/09 12:09:54;;;;;;;13.43;9.30;;;13.10;25.40;;;;;;5036518;28;20445;-86
2021/03/09 12:12:21;;;;;;;13.10;9.30;;;12.80;25.00;;;;;;5037561;28;20453;-85
2021/03/09 12:14:50;;;;;;;15.03;9.90;;;13.30;25.20;;;;;;5036190;28;20955;-85
2021/03/09 12:17:16;;;;;;;12.53;8.57;;;13.50;25.40;;;;;;5038550;28;20456;-85
2021/03/09 12:19:47;;;;;;;14.63;10.70;;;13.80;24.90;;;;;;5036619;28;20565;-86
2021/03/09 12:22:14;;;;;;;17.20;10.00;;;13.90;23.90;;;;;;5037790;28;20898;-86
2021/03/09 12:24:44;;;;;;;23.83;12.07;;;13.50;24.00;;;;;;5035872;28;20481;-86
2021/03/09 12:27:10;;;;;;;24.30;13.50;;;13.20;24.70;;;;;;5043048;28;20443;-86
2021/03/09 12:29:37;;;;;;;14.07;9.70;;;13.40;25.20;;;;;;5042938;28;20442;-86
2021/03/09 12:32:04;;;;;;;9.80;7.23;;;13.20;24.60;;;;;;5042211;28;20491;-86
2021/03/09 12:34:36;;;;;;;13.10;9.87;;;13.10;25.80;;;;;;5040377;28;20481;-86
2021/03/09 12:37:03;;;;;;;11.20;9.17;;;13.20;25.20;;;;;;5039873;28;20410;-86
2021/03/09 12:39:30;;;;;;;15.73;10.47;;;13.50;24.90;;;;;;5039587;28;20477;-85
2021/03/09 12:41:57;;;;;;;15.67;9.27;;;13.40;23.30;;;;;;5017944;28;20460;-85
2021/03/09 12:44:24;;;;;;;13.37;9.40;;;13.50;23.10;;;;;;5037344;28;20465;-85
2021/03/09 12:46:50;;;;;;;13.83;10.23;;;13.20;24.40;;;;;;5037753;28;20477;-85